PRINT OUT SECTION, show »

METAR EPBY 171130Z 25011KT 220V300 CAVOK 25/13 Q1018=

METAR EPGD 171130Z 25013KT 9999 FEW048 23/12 Q1017 =

METAR EPKK 171130Z 29003KT 250V060 9999 SCT040 29/18 Q1019 =

METAR EPKT 171130Z 33005KT 290V360 CAVOK 26/16 Q1020 =

METAR EPLB 171130Z 35003KT 300V040 9999 FEW045 28/18 Q1018 =

METAR EPLL 171130Z 24010KT 200V270 CAVOK 27/14 Q1019 =

METAR EPML 171130Z AUTO VRB03KT 9999 NCD 28/16 Q1019=

METAR EPMO 171130Z 24010KT CAVOK 28/16 Q1018 =

METAR EPPO 171130Z 26012KT CAVOK 25/12 Q1019 =

METAR EPRA 171130Z 23006KT 200V280 9999 SCT043 28/19 Q1019=

METAR EPRZ 171130Z 12004KT 100V180 9999 SCT020CB 24/21 Q1019 =

METAR EPSC 171130Z 21012KT 170V240 9999 SCT034TCU 22/14 Q1017 =

METAR EPSY 171130Z 23011G22KT 190V290 CAVOK 27/14 Q1018=

METAR EPWA 171130Z 24007KT 210V280 9999 FEW040TCU 27/18 Q1018 NOSIG=

METAR EPWR 171130Z 19004KT 140V220 CAVOK 24/12 Q1020 =

METAR EPZG 171130Z 24010KT 210V290 CAVOK 23/13 Q1019 =
 METAR EPWA
Lokalizacja:EPWA Warszawa Chopina
Czas:11:30 UTC
Średni kierunek wiatru:240 °
Średnia prędkość wiatru:7 węzłów
Kierunek wiatru zmienia się od:210 °
Kierunek wiatru zmienia się do:280 °
Widzialność:10 km i więcej
Pierwsza warstwa chmur:1/8 do 2/8, wysokość podstawy 4000 FT
Chmury konwekcyjne :cumulus congestus
Temperatura powietrza:27 °C
Temperatura punktu rosy:18 °C
Ciśnienie QNH:1018 hPa
Prognoza TREND:brak istotnych zmian warunków meteorologicznych
w ciągu dwóch najbliższych godzin